THY3DB LTFM-LTDB
Flight info
| Callsign | THY3DB |
|---|---|
| Flight time | 1h 10m |
| Altitude | 35000 |
| Route | VICEN UT57 VEVUD UT341 BAG UW75 AZBUL UL601 URGUP UW75 KEMER |
| Aircraft | A320/M-SDE3FGHIRWY/LB1 |
Departure
| Time | 2026-04-15 16:33 |
|---|---|
| Airport | İstanbul Airport (LTFM) |
Arrival
| Time | 2026-04-15 17:43 |
|---|---|
| Airport | Çukurova International Airport (LTDB) |
| Time | Latitude | Longitude | Altitude | Speed | Heading |
|---|---|---|---|---|---|
| 2026-04-15 15:37 | 41.26047 | 28.74894 | 314 ft | 0 kts | 251° |
| 2026-04-15 16:21 | 41.26048 | 28.74897 | 313 ft | 1 kts | 251° |
| 2026-04-15 16:21 | 41.26053 | 28.74920 | 312 ft | 3 kts | 253° |
| 2026-04-15 16:21 | 41.26059 | 28.74946 | 311 ft | 3 kts | 256° |
| 2026-04-15 16:22 | 41.26063 | 28.74972 | 313 ft | 3 kts | 261° |
| 2026-04-15 16:22 | 41.26065 | 28.74999 | 313 ft | 3 kts | 270° |
| 2026-04-15 16:22 | 41.26064 | 28.75024 | 313 ft | 3 kts | 292° |
| 2026-04-15 16:22 | 41.26056 | 28.75041 | 312 ft | 2 kts | 336° |
| 2026-04-15 16:23 | 41.26054 | 28.75043 | 312 ft | 0 kts | 341° |
| 2026-04-15 16:26 | 41.26055 | 28.75042 | 313 ft | 1 kts | 341° |
| 2026-04-15 16:26 | 41.26067 | 28.75037 | 313 ft | 3 kts | 341° |
| 2026-04-15 16:26 | 41.26096 | 28.75023 | 313 ft | 5 kts | 341° |
| 2026-04-15 16:26 | 41.26140 | 28.75003 | 313 ft | 8 kts | 342° |
| 2026-04-15 16:27 | 41.26202 | 28.74982 | 313 ft | 10 kts | 355° |
| 2026-04-15 16:27 | 41.26241 | 28.75053 | 313 ft | 11 kts | 87° |
| 2026-04-15 16:27 | 41.26240 | 28.75154 | 313 ft | 12 kts | 91° |
| 2026-04-15 16:27 | 41.26241 | 28.75268 | 314 ft | 13 kts | 87° |
| 2026-04-15 16:28 | 41.26243 | 28.75399 | 314 ft | 15 kts | 90° |
| 2026-04-15 16:28 | 41.26245 | 28.75527 | 314 ft | 11 kts | 89° |
| 2026-04-15 16:28 | 41.26245 | 28.75550 | 314 ft | 0 kts | 88° |
| 2026-04-15 16:29 | 41.26245 | 28.75552 | 314 ft | 0 kts | 88° |
| 2026-04-15 16:31 | 41.26246 | 28.75571 | 314 ft | 8 kts | 89° |
| 2026-04-15 16:31 | 41.26257 | 28.75652 | 314 ft | 9 kts | 49° |
| 2026-04-15 16:31 | 41.26324 | 28.75667 | 315 ft | 12 kts | 360° |
| 2026-04-15 16:32 | 41.26341 | 28.75667 | 315 ft | 0 kts | 360° |
| 2026-04-15 16:32 | 41.26497 | 28.75665 | 311 ft | 55 kts | 359° |
| 2026-04-15 16:33 | 41.27095 | 28.75656 | 301 ft | 113 kts | 359° |
| 2026-04-15 16:33 | 41.28042 | 28.75637 | 296 ft | 155 kts | 3° |
| 2026-04-15 16:33 | 41.29089 | 28.75385 | 826 ft | 160 kts | 330° |
| 2026-04-15 16:33 | 41.29796 | 28.74201 | 1408 ft | 168 kts | 301° |
| 2026-04-15 16:34 | 41.30318 | 28.72806 | 2014 ft | 170 kts | 297° |
| 2026-04-15 16:34 | 41.30870 | 28.71333 | 2321 ft | 187 kts | 315° |
| 2026-04-15 16:34 | 41.32020 | 28.70524 | 2641 ft | 195 kts | 5° |
| 2026-04-15 16:34 | 41.33370 | 28.70942 | 2944 ft | 211 kts | 13° |
| 2026-04-15 16:35 | 41.34897 | 28.71186 | 3270 ft | 232 kts | 7° |
| 2026-04-15 16:35 | 41.36543 | 28.71405 | 3830 ft | 245 kts | 6° |
| 2026-04-15 16:35 | 41.38308 | 28.71662 | 4364 ft | 261 kts | 6° |
| 2026-04-15 16:35 | 41.40126 | 28.71947 | 5199 ft | 266 kts | 6° |
| 2026-04-15 16:36 | 41.41947 | 28.72262 | 6028 ft | 269 kts | 6° |
| 2026-04-15 16:36 | 41.43817 | 28.72602 | 6832 ft | 273 kts | 6° |
| 2026-04-15 16:36 | 41.45742 | 28.72948 | 7605 ft | 279 kts | 6° |
| 2026-04-15 16:36 | 41.47616 | 28.73531 | 7907 ft | 283 kts | 24° |
| 2026-04-15 16:37 | 41.49184 | 28.75105 | 7998 ft | 286 kts | 50° |
| 2026-04-15 16:37 | 41.50070 | 28.77462 | 8012 ft | 287 kts | 77° |
| 2026-04-15 16:37 | 41.50138 | 28.80110 | 8017 ft | 289 kts | 98° |
| 2026-04-15 16:37 | 41.49517 | 28.82656 | 8014 ft | 289 kts | 120° |
| 2026-04-15 16:38 | 41.48223 | 28.84677 | 8012 ft | 288 kts | 142° |
| 2026-04-15 16:38 | 41.46635 | 28.86321 | 8013 ft | 289 kts | 143° |
| 2026-04-15 16:38 | 41.45557 | 28.87421 | 8153 ft | 294 kts | 143° |
| 2026-04-15 16:38 | 41.43925 | 28.89079 | 8999 ft | 294 kts | 143° |
| 2026-04-15 16:39 | 41.42313 | 28.90718 | 9800 ft | 297 kts | 143° |
| 2026-04-15 16:39 | 41.40619 | 28.92332 | 10456 ft | 304 kts | 151° |
| 2026-04-15 16:39 | 41.38603 | 28.93461 | 10643 ft | 325 kts | 167° |
| 2026-04-15 16:39 | 41.36303 | 28.93777 | 10895 ft | 340 kts | 186° |
| 2026-04-15 16:40 | 41.33959 | 28.93222 | 11426 ft | 344 kts | 195° |
| 2026-04-15 16:40 | 41.31623 | 28.92447 | 12083 ft | 348 kts | 195° |
| 2026-04-15 16:40 | 41.29259 | 28.91678 | 12732 ft | 352 kts | 195° |
| 2026-04-15 16:40 | 41.26866 | 28.90908 | 13374 ft | 355 kts | 194° |
| 2026-04-15 16:41 | 41.24423 | 28.90288 | 14028 ft | 361 kts | 185° |
| 2026-04-15 16:41 | 41.21911 | 28.90693 | 14562 ft | 369 kts | 163° |
| 2026-04-15 16:41 | 41.19631 | 28.92273 | 15146 ft | 374 kts | 142° |
| 2026-04-15 16:41 | 41.17699 | 28.94596 | 15755 ft | 376 kts | 136° |
| 2026-04-15 16:42 | 41.15810 | 28.97011 | 16339 ft | 379 kts | 136° |
| 2026-04-15 16:42 | 41.13905 | 28.99439 | 16928 ft | 380 kts | 136° |
| 2026-04-15 16:42 | 41.11990 | 29.01882 | 17507 ft | 383 kts | 136° |
| 2026-04-15 16:42 | 41.10059 | 29.04355 | 18062 ft | 387 kts | 136° |
| 2026-04-15 16:43 | 41.08117 | 29.06847 | 18641 ft | 390 kts | 136° |
| 2026-04-15 16:43 | 41.06162 | 29.09375 | 19102 ft | 395 kts | 136° |
| 2026-04-15 16:43 | 41.04192 | 29.11936 | 19607 ft | 399 kts | 136° |
| 2026-04-15 16:43 | 41.02207 | 29.14517 | 20130 ft | 402 kts | 136° |
| 2026-04-15 16:44 | 41.00202 | 29.17134 | 20626 ft | 406 kts | 136° |
| 2026-04-15 16:44 | 40.98181 | 29.19786 | 21084 ft | 411 kts | 136° |
| 2026-04-15 16:44 | 40.96148 | 29.22464 | 21545 ft | 415 kts | 136° |
| 2026-04-15 16:44 | 40.94087 | 29.25193 | 22001 ft | 420 kts | 136° |
| 2026-04-15 16:45 | 40.92016 | 29.27948 | 22434 ft | 424 kts | 136° |
| 2026-04-15 16:45 | 40.89927 | 29.30738 | 22868 ft | 429 kts | 136° |
| 2026-04-15 16:45 | 40.87825 | 29.33557 | 23301 ft | 433 kts | 136° |
| 2026-04-15 16:45 | 40.85702 | 29.36414 | 23721 ft | 437 kts | 136° |
| 2026-04-15 16:46 | 40.83566 | 29.39299 | 24088 ft | 441 kts | 136° |
| 2026-04-15 16:46 | 40.81419 | 29.42208 | 24462 ft | 444 kts | 136° |
| 2026-04-15 16:46 | 40.79260 | 29.45144 | 24844 ft | 447 kts | 136° |
| 2026-04-15 16:46 | 40.77093 | 29.48103 | 25193 ft | 449 kts | 136° |
| 2026-04-15 16:47 | 40.74914 | 29.51086 | 25545 ft | 452 kts | 136° |
| 2026-04-15 16:47 | 40.72755 | 29.54052 | 25886 ft | 455 kts | 136° |
| 2026-04-15 16:47 | 40.70559 | 29.57075 | 26217 ft | 458 kts | 136° |
| 2026-04-15 16:47 | 40.68356 | 29.60115 | 26549 ft | 460 kts | 136° |
| 2026-04-15 16:48 | 40.66138 | 29.63183 | 26888 ft | 463 kts | 136° |
| 2026-04-15 16:48 | 40.63910 | 29.66272 | 27214 ft | 466 kts | 136° |
| 2026-04-15 16:48 | 40.61674 | 29.69383 | 27555 ft | 469 kts | 136° |
| 2026-04-15 16:48 | 40.59434 | 29.72505 | 27897 ft | 471 kts | 136° |
| 2026-04-15 16:49 | 40.57170 | 29.75658 | 28204 ft | 474 kts | 136° |
| 2026-04-15 16:49 | 40.54898 | 29.78813 | 28524 ft | 477 kts | 136° |
| 2026-04-15 16:49 | 40.52617 | 29.81982 | 28856 ft | 479 kts | 136° |
| 2026-04-15 16:49 | 40.50314 | 29.85183 | 29163 ft | 482 kts | 136° |
| 2026-04-15 16:50 | 40.48003 | 29.88392 | 29468 ft | 485 kts | 136° |
| 2026-04-15 16:50 | 40.45681 | 29.91623 | 29771 ft | 487 kts | 136° |
| 2026-04-15 16:50 | 40.43356 | 29.94866 | 30204 ft | 487 kts | 136° |
| 2026-04-15 16:50 | 40.41041 | 29.98104 | 30591 ft | 486 kts | 136° |
| 2026-04-15 16:51 | 40.38737 | 30.01347 | 30985 ft | 485 kts | 136° |
| 2026-04-15 16:51 | 40.36488 | 30.04551 | 31421 ft | 483 kts | 136° |
| 2026-04-15 16:51 | 40.34203 | 30.07843 | 31892 ft | 481 kts | 136° |
| 2026-04-15 16:51 | 40.31996 | 30.11061 | 32343 ft | 479 kts | 136° |
| 2026-04-15 16:52 | 40.29784 | 30.14324 | 32775 ft | 477 kts | 136° |
| 2026-04-15 16:52 | 40.27594 | 30.17591 | 33195 ft | 476 kts | 136° |
| 2026-04-15 16:52 | 40.25428 | 30.20856 | 33644 ft | 474 kts | 136° |
| 2026-04-15 16:52 | 40.23279 | 30.24119 | 34131 ft | 472 kts | 136° |
| 2026-04-15 16:53 | 40.21154 | 30.27390 | 34498 ft | 471 kts | 136° |
| 2026-04-15 16:53 | 40.19036 | 30.30646 | 34847 ft | 470 kts | 136° |
| 2026-04-15 16:53 | 40.16945 | 30.33933 | 35093 ft | 473 kts | 131° |
| 2026-04-15 16:53 | 40.15315 | 30.37711 | 35163 ft | 486 kts | 114° |
| 2026-04-15 16:54 | 40.14494 | 30.42028 | 35152 ft | 495 kts | 96° |
| 2026-04-15 16:54 | 40.14628 | 30.46525 | 35160 ft | 497 kts | 78° |
| 2026-04-15 16:54 | 40.15662 | 30.50810 | 35163 ft | 495 kts | 65° |
| 2026-04-15 16:55 | 40.18326 | 30.59151 | 35152 ft | 499 kts | 65° |
| 2026-04-15 16:55 | 40.21007 | 30.67558 | 35154 ft | 501 kts | 65° |
| 2026-04-15 16:56 | 40.23669 | 30.75996 | 35159 ft | 501 kts | 66° |
| 2026-04-15 16:56 | 40.26311 | 30.84444 | 35165 ft | 502 kts | 66° |
| 2026-04-15 16:57 | 40.28957 | 30.92908 | 35174 ft | 503 kts | 65° |
| 2026-04-15 16:57 | 40.31612 | 31.01388 | 35180 ft | 502 kts | 65° |
| 2026-04-15 16:58 | 40.34256 | 31.09867 | 35181 ft | 503 kts | 65° |
| 2026-04-15 16:58 | 40.36463 | 31.18562 | 35186 ft | 505 kts | 79° |
| 2026-04-15 16:59 | 40.36780 | 31.27712 | 35174 ft | 503 kts | 97° |
| 2026-04-15 16:59 | 40.35365 | 31.36607 | 35181 ft | 501 kts | 106° |
| 2026-04-15 17:00 | 40.33687 | 31.45471 | 35174 ft | 501 kts | 106° |
| 2026-04-15 17:00 | 40.31994 | 31.54341 | 35165 ft | 501 kts | 106° |
| 2026-04-15 17:01 | 40.30299 | 31.63191 | 35177 ft | 501 kts | 106° |
| 2026-04-15 17:01 | 40.28604 | 31.72031 | 35174 ft | 500 kts | 106° |
| 2026-04-15 17:02 | 40.26893 | 31.80857 | 35169 ft | 500 kts | 106° |
| 2026-04-15 17:02 | 40.25173 | 31.89667 | 35172 ft | 499 kts | 106° |
| 2026-04-15 17:03 | 40.23457 | 31.98470 | 35167 ft | 499 kts | 106° |
| 2026-04-15 17:03 | 40.21736 | 32.07262 | 35167 ft | 499 kts | 106° |
| 2026-04-15 17:04 | 40.20010 | 32.16053 | 35161 ft | 498 kts | 106° |
| 2026-04-15 17:04 | 40.18281 | 32.24832 | 35163 ft | 498 kts | 106° |
| 2026-04-15 17:05 | 40.16540 | 32.33593 | 35160 ft | 498 kts | 106° |
| 2026-04-15 17:05 | 40.14787 | 32.42356 | 35162 ft | 498 kts | 106° |
| 2026-04-15 17:06 | 40.13029 | 32.51132 | 35157 ft | 498 kts | 106° |
| 2026-04-15 17:06 | 40.11271 | 32.59887 | 35169 ft | 498 kts | 106° |
| 2026-04-15 17:07 | 40.09511 | 32.68588 | 35150 ft | 499 kts | 106° |
| 2026-04-15 17:07 | 40.06999 | 32.76965 | 35146 ft | 493 kts | 124° |
| 2026-04-15 17:08 | 40.02790 | 32.83854 | 35136 ft | 481 kts | 143° |
| 2026-04-15 17:08 | 39.97433 | 32.88850 | 35153 ft | 472 kts | 154° |
| 2026-04-15 17:09 | 39.91865 | 32.93398 | 35163 ft | 472 kts | 154° |
| 2026-04-15 17:09 | 39.86305 | 32.97948 | 35168 ft | 472 kts | 153° |
| 2026-04-15 17:10 | 39.80749 | 33.02488 | 35167 ft | 472 kts | 153° |
| 2026-04-15 17:10 | 39.75187 | 33.07024 | 35163 ft | 471 kts | 153° |
| 2026-04-15 17:11 | 39.69623 | 33.11548 | 35165 ft | 472 kts | 154° |
| 2026-04-15 17:11 | 39.64056 | 33.16062 | 35156 ft | 471 kts | 153° |
| 2026-04-15 17:12 | 39.55707 | 33.22818 | 35163 ft | 471 kts | 154° |
| 2026-04-15 17:12 | 39.50134 | 33.27313 | 35158 ft | 471 kts | 153° |
| 2026-04-15 17:13 | 39.44564 | 33.31798 | 35164 ft | 471 kts | 153° |
| 2026-04-15 17:13 | 39.38903 | 33.35985 | 35166 ft | 467 kts | 158° |
| 2026-04-15 17:14 | 39.33202 | 33.40034 | 35167 ft | 469 kts | 155° |
| 2026-04-15 17:14 | 39.27609 | 33.44384 | 35169 ft | 470 kts | 154° |
| 2026-04-15 17:15 | 39.22068 | 33.48838 | 35176 ft | 468 kts | 153° |
| 2026-04-15 17:15 | 39.16564 | 33.53206 | 35182 ft | 466 kts | 153° |
| 2026-04-15 17:16 | 39.11021 | 33.57529 | 35181 ft | 465 kts | 154° |
| 2026-04-15 17:16 | 39.05476 | 33.61833 | 35181 ft | 465 kts | 154° |
| 2026-04-15 17:17 | 38.99939 | 33.66127 | 35179 ft | 464 kts | 153° |
| 2026-04-15 17:17 | 38.94419 | 33.70409 | 35164 ft | 462 kts | 153° |
| 2026-04-15 17:18 | 38.88916 | 33.74685 | 35173 ft | 462 kts | 153° |
| 2026-04-15 17:18 | 38.83424 | 33.78936 | 35168 ft | 461 kts | 153° |
| 2026-04-15 17:19 | 38.77925 | 33.83185 | 35180 ft | 461 kts | 153° |
| 2026-04-15 17:19 | 38.72418 | 33.87413 | 35168 ft | 461 kts | 153° |
| 2026-04-15 17:20 | 38.67847 | 33.90927 | 35183 ft | 461 kts | 153° |
| 2026-04-15 17:20 | 38.62338 | 33.95158 | 35190 ft | 462 kts | 153° |
| 2026-04-15 17:21 | 38.56829 | 33.99377 | 35190 ft | 462 kts | 153° |
| 2026-04-15 17:21 | 38.51311 | 34.03604 | 35191 ft | 463 kts | 153° |
| 2026-04-15 17:22 | 38.45795 | 34.07815 | 34219 ft | 460 kts | 153° |
| 2026-04-15 17:22 | 38.43012 | 34.09925 | 32566 ft | 469 kts | 153° |
| 2026-04-15 17:22 | 38.40240 | 34.12026 | 31990 ft | 454 kts | 152° |
| 2026-04-15 17:23 | 38.37607 | 34.14028 | 31881 ft | 429 kts | 153° |
| 2026-04-15 17:23 | 38.35085 | 34.15948 | 31491 ft | 416 kts | 153° |
| 2026-04-15 17:23 | 38.32603 | 34.17828 | 30985 ft | 415 kts | 152° |
| 2026-04-15 17:23 | 38.30115 | 34.19707 | 30487 ft | 417 kts | 152° |
| 2026-04-15 17:24 | 38.27619 | 34.21590 | 29927 ft | 417 kts | 152° |
| 2026-04-15 17:24 | 38.25122 | 34.23472 | 29428 ft | 416 kts | 152° |
| 2026-04-15 17:24 | 38.22669 | 34.25323 | 28922 ft | 415 kts | 153° |
| 2026-04-15 17:24 | 38.20186 | 34.27196 | 28415 ft | 415 kts | 153° |
| 2026-04-15 17:25 | 38.17710 | 34.29064 | 27923 ft | 414 kts | 152° |
| 2026-04-15 17:25 | 38.15227 | 34.30935 | 27429 ft | 414 kts | 152° |
| 2026-04-15 17:25 | 38.12746 | 34.32803 | 26942 ft | 414 kts | 152° |
| 2026-04-15 17:25 | 38.10268 | 34.34667 | 26465 ft | 414 kts | 152° |
| 2026-04-15 17:26 | 38.07791 | 34.36531 | 25987 ft | 414 kts | 152° |
| 2026-04-15 17:26 | 38.05317 | 34.38394 | 25526 ft | 413 kts | 152° |
| 2026-04-15 17:26 | 38.02841 | 34.40256 | 25071 ft | 413 kts | 152° |
| 2026-04-15 17:26 | 38.00366 | 34.42111 | 24619 ft | 413 kts | 152° |
| 2026-04-15 17:27 | 37.97894 | 34.43962 | 24149 ft | 413 kts | 153° |
| 2026-04-15 17:27 | 37.95414 | 34.45815 | 23583 ft | 413 kts | 153° |
| 2026-04-15 17:27 | 37.92938 | 34.47661 | 23058 ft | 412 kts | 153° |
| 2026-04-15 17:27 | 37.90478 | 34.49495 | 22616 ft | 409 kts | 152° |
| 2026-04-15 17:28 | 37.88037 | 34.51322 | 22167 ft | 407 kts | 152° |
| 2026-04-15 17:28 | 37.85616 | 34.53158 | 21691 ft | 405 kts | 152° |
| 2026-04-15 17:28 | 37.83213 | 34.54997 | 21222 ft | 402 kts | 151° |
| 2026-04-15 17:28 | 37.80829 | 34.56831 | 20744 ft | 401 kts | 151° |
| 2026-04-15 17:29 | 37.78451 | 34.58656 | 20273 ft | 399 kts | 151° |
| 2026-04-15 17:29 | 37.76083 | 34.60464 | 19793 ft | 397 kts | 151° |
| 2026-04-15 17:29 | 37.73716 | 34.62262 | 19316 ft | 395 kts | 151° |
| 2026-04-15 17:29 | 37.71406 | 34.64016 | 18839 ft | 380 kts | 150° |
| 2026-04-15 17:30 | 37.69178 | 34.65707 | 18390 ft | 367 kts | 150° |
| 2026-04-15 17:30 | 37.67035 | 34.67333 | 17903 ft | 353 kts | 150° |
| 2026-04-15 17:30 | 37.64965 | 34.68901 | 17537 ft | 343 kts | 150° |
| 2026-04-15 17:30 | 37.62920 | 34.70449 | 17101 ft | 342 kts | 150° |
| 2026-04-15 17:31 | 37.60876 | 34.71994 | 16668 ft | 341 kts | 150° |
| 2026-04-15 17:31 | 37.58928 | 34.73693 | 16232 ft | 341 kts | 144° |
| 2026-04-15 17:31 | 37.57043 | 34.75512 | 15787 ft | 340 kts | 143° |
| 2026-04-15 17:31 | 37.55166 | 34.77328 | 15362 ft | 339 kts | 143° |
| 2026-04-15 17:32 | 37.53297 | 34.79133 | 15039 ft | 335 kts | 143° |
| 2026-04-15 17:32 | 37.51480 | 34.80888 | 14887 ft | 326 kts | 143° |
| 2026-04-15 17:32 | 37.49691 | 34.82615 | 14586 ft | 322 kts | 143° |
| 2026-04-15 17:32 | 37.47920 | 34.84323 | 14265 ft | 319 kts | 143° |
| 2026-04-15 17:33 | 37.46160 | 34.86017 | 13954 ft | 317 kts | 143° |
| 2026-04-15 17:33 | 37.44414 | 34.87693 | 13591 ft | 315 kts | 143° |
| 2026-04-15 17:33 | 37.42675 | 34.89361 | 13211 ft | 313 kts | 143° |
| 2026-04-15 17:33 | 37.40948 | 34.91019 | 12858 ft | 312 kts | 143° |
| 2026-04-15 17:34 | 37.39226 | 34.92675 | 12481 ft | 311 kts | 143° |
| 2026-04-15 17:34 | 37.37513 | 34.94321 | 12119 ft | 309 kts | 143° |
| 2026-04-15 17:34 | 37.35808 | 34.95957 | 11741 ft | 309 kts | 143° |
| 2026-04-15 17:34 | 37.34128 | 34.97570 | 11392 ft | 307 kts | 143° |
| 2026-04-15 17:35 | 37.32428 | 34.99198 | 11045 ft | 306 kts | 143° |
| 2026-04-15 17:35 | 37.30739 | 35.00812 | 10702 ft | 304 kts | 142° |
| 2026-04-15 17:35 | 37.29057 | 35.02417 | 10361 ft | 303 kts | 142° |
| 2026-04-15 17:35 | 37.27382 | 35.04015 | 10026 ft | 302 kts | 142° |
| 2026-04-15 17:36 | 37.25720 | 35.05601 | 9654 ft | 300 kts | 142° |
| 2026-04-15 17:36 | 37.24073 | 35.07176 | 9213 ft | 296 kts | 142° |
| 2026-04-15 17:36 | 37.22431 | 35.08747 | 8505 ft | 296 kts | 142° |
| 2026-04-15 17:36 | 37.20786 | 35.10318 | 7708 ft | 299 kts | 142° |
| 2026-04-15 17:37 | 37.19128 | 35.11899 | 6932 ft | 301 kts | 142° |
| 2026-04-15 17:37 | 37.17473 | 35.13478 | 6335 ft | 296 kts | 142° |
| 2026-04-15 17:37 | 37.15862 | 35.15013 | 5899 ft | 284 kts | 142° |
| 2026-04-15 17:37 | 37.14316 | 35.16481 | 5521 ft | 273 kts | 142° |
| 2026-04-15 17:38 | 37.12834 | 35.17888 | 5162 ft | 262 kts | 142° |
| 2026-04-15 17:38 | 37.11408 | 35.19243 | 4808 ft | 252 kts | 143° |
| 2026-04-15 17:38 | 37.09887 | 35.20238 | 4470 ft | 242 kts | 162° |
| 2026-04-15 17:38 | 37.08262 | 35.20571 | 4135 ft | 234 kts | 180° |
| 2026-04-15 17:39 | 37.06676 | 35.20275 | 3763 ft | 228 kts | 197° |
| 2026-04-15 17:39 | 37.05262 | 35.19417 | 3357 ft | 225 kts | 211° |
| 2026-04-15 17:39 | 37.03948 | 35.18410 | 3037 ft | 217 kts | 211° |
| 2026-04-15 17:39 | 37.02699 | 35.17457 | 2757 ft | 209 kts | 211° |
| 2026-04-15 17:40 | 37.01493 | 35.16535 | 2517 ft | 198 kts | 211° |
| 2026-04-15 17:40 | 37.00344 | 35.15657 | 2243 ft | 190 kts | 211° |
| 2026-04-15 17:40 | 36.99241 | 35.14815 | 1996 ft | 181 kts | 211° |
| 2026-04-15 17:40 | 36.98200 | 35.14020 | 1756 ft | 169 kts | 211° |
| 2026-04-15 17:41 | 36.97227 | 35.13276 | 1545 ft | 159 kts | 211° |
| 2026-04-15 17:41 | 36.96310 | 35.12576 | 1368 ft | 150 kts | 212° |
| 2026-04-15 17:41 | 36.95419 | 35.11896 | 1158 ft | 149 kts | 211° |
| 2026-04-15 17:41 | 36.94537 | 35.11224 | 963 ft | 148 kts | 211° |
| 2026-04-15 17:42 | 36.93659 | 35.10571 | 768 ft | 146 kts | 210° |
| 2026-04-15 17:42 | 36.92785 | 35.09933 | 601 ft | 144 kts | 211° |
| 2026-04-15 17:42 | 36.92411 | 35.09640 | 542 ft | 144 kts | 213° |
| 2026-04-15 17:42 | 36.91562 | 35.08981 | 369 ft | 143 kts | 213° |
| 2026-04-15 17:43 | 36.90716 | 35.08321 | 154 ft | 143 kts | 212° |
| 2026-04-15 17:43 | 36.89898 | 35.07694 | 54 ft | 127 kts | 212° |
| 2026-04-15 17:43 | 36.89274 | 35.07213 | 53 ft | 81 kts | 211° |
| 2026-04-15 17:43 | 36.88939 | 35.06955 | 52 ft | 32 kts | 211° |
| 2026-04-15 17:44 | 36.88864 | 35.06897 | 52 ft | 7 kts | 214° |
| 2026-04-15 17:44 | 36.88791 | 35.06843 | 52 ft | 20 kts | 212° |
| 2026-04-15 17:44 | 36.88662 | 35.06744 | 53 ft | 23 kts | 211° |
| 2026-04-15 17:44 | 36.88559 | 35.06588 | 52 ft | 25 kts | 243° |
| 2026-04-15 17:45 | 36.88569 | 35.06434 | 52 ft | 19 kts | 340° |
| 2026-04-15 17:45 | 36.88709 | 35.06500 | 51 ft | 28 kts | 32° |
| 2026-04-15 17:45 | 36.88908 | 35.06652 | 53 ft | 37 kts | 32° |
| 2026-04-15 17:45 | 36.89132 | 35.06823 | 53 ft | 38 kts | 31° |
| 2026-04-15 17:46 | 36.89329 | 35.06972 | 53 ft | 14 kts | 31° |
| 2026-04-15 17:46 | 36.89415 | 35.06931 | 52 ft | 16 kts | 300° |
| 2026-04-15 17:46 | 36.89476 | 35.06804 | 53 ft | 19 kts | 301° |
| 2026-04-15 17:46 | 36.89555 | 35.06662 | 53 ft | 15 kts | 322° |
| 2026-04-15 17:47 | 36.89642 | 35.06706 | 53 ft | 15 kts | 34° |
| 2026-04-15 17:47 | 36.89740 | 35.06784 | 53 ft | 18 kts | 33° |
| 2026-04-15 17:47 | 36.89853 | 35.06874 | 52 ft | 21 kts | 34° |
| 2026-04-15 17:47 | 36.89982 | 35.06973 | 47 ft | 23 kts | 31° |
| 2026-04-15 17:48 | 36.90125 | 35.07082 | 51 ft | 21 kts | 31° |
| 2026-04-15 17:48 | 36.90170 | 35.07088 | 48 ft | 7 kts | 304° |
| 2026-04-15 17:48 | 36.90192 | 35.07046 | 51 ft | 2 kts | 302° |
| 2026-04-15 17:48 | 36.90194 | 35.07040 | 51 ft | 0 kts | 302° |